createdAt,value
2019-02-14T00:00:37.689Z,17.56
2019-02-14T00:03:05.494Z,17.54
2019-02-14T00:05:33.260Z,17.51
2019-02-14T00:08:01.035Z,17.49
2019-02-14T00:10:28.767Z,17.46
2019-02-14T00:12:56.528Z,17.51
2019-02-14T00:15:24.339Z,17.50
2019-02-14T00:17:52.110Z,17.55
2019-02-14T00:20:19.885Z,17.53
2019-02-14T00:22:47.652Z,17.48
2019-02-14T00:25:15.481Z,17.46
2019-02-14T00:27:43.590Z,17.54
2019-02-14T00:30:11.332Z,17.44
2019-02-14T00:32:39.224Z,17.48
2019-02-14T00:35:06.985Z,17.55
2019-02-14T00:37:34.777Z,17.46
2019-02-14T00:40:02.549Z,17.50
2019-02-14T00:42:30.318Z,17.48
2019-02-14T00:44:58.124Z,17.39
2019-02-14T00:47:25.922Z,17.44
2019-02-14T00:49:53.734Z,17.49
2019-02-14T00:52:21.528Z,17.46
2019-02-14T00:54:49.427Z,17.42
2019-02-14T00:57:17.170Z,17.36
2019-02-14T00:59:44.939Z,17.32
2019-02-14T01:02:12.768Z,17.35
2019-02-14T01:04:40.522Z,17.38
2019-02-14T01:07:35.118Z,17.38
2019-02-14T01:10:08.153Z,17.49
2019-02-14T01:12:38.757Z,17.42
2019-02-14T01:15:11.181Z,17.36
2019-02-14T01:17:39.292Z,17.42
2019-02-14T01:20:07.123Z,17.38
2019-02-14T01:22:34.860Z,17.41
2019-02-14T01:25:02.612Z,17.38
2019-02-14T01:27:30.360Z,17.34
2019-02-14T01:29:58.441Z,17.34
2019-02-14T01:32:26.291Z,17.37
2019-02-14T01:34:54.064Z,17.35
2019-02-14T01:37:21.873Z,17.35
2019-02-14T01:39:49.664Z,17.11
2019-02-14T01:42:17.449Z,17.32
2019-02-14T01:44:45.258Z,17.27
2019-02-14T01:47:13.007Z,17.33
2019-02-14T01:49:40.921Z,17.28
2019-02-14T01:52:08.681Z,17.22
2019-02-14T01:54:36.784Z,17.32
2019-02-14T01:57:04.606Z,17.34
2019-02-14T01:59:32.422Z,17.34
2019-02-14T02:02:03.100Z,17.30
2019-02-14T02:04:30.841Z,17.32
2019-02-14T02:06:58.687Z,17.36
2019-02-14T02:09:26.467Z,17.33
2019-02-14T02:11:54.277Z,17.29
2019-02-14T02:14:22.029Z,17.37
2019-02-14T02:16:50.000Z,17.37
2019-02-14T02:19:17.804Z,17.39
2019-02-14T02:21:45.621Z,17.37
2019-02-14T02:24:13.390Z,17.29
2019-02-14T02:26:41.134Z,17.30
2019-02-14T02:29:09.009Z,17.29
2019-02-14T02:31:36.758Z,17.32
2019-02-14T02:34:04.820Z,17.27
2019-02-14T02:36:32.639Z,17.22
2019-02-14T02:39:00.406Z,17.24
2019-02-14T02:41:28.157Z,17.25
2019-02-14T02:43:55.922Z,17.30
2019-02-14T02:46:23.753Z,17.36
2019-02-14T02:48:51.644Z,17.35
2019-02-14T02:51:19.391Z,17.26
2019-02-14T02:53:47.139Z,17.27
2019-02-14T02:56:14.945Z,17.25
2019-02-14T02:58:42.757Z,17.21
2019-02-14T03:01:10.508Z,17.24
2019-02-14T03:03:38.390Z,17.22
2019-02-14T03:06:10.497Z,17.16
2019-02-14T03:08:35.649Z,17.20
2019-02-14T03:11:03.391Z,17.06
2019-02-14T03:13:31.139Z,17.13
2019-02-14T03:15:59.406Z,17.12
2019-02-14T03:18:27.173Z,17.00
2019-02-14T03:20:54.992Z,17.09
2019-02-14T03:23:22.796Z,17.11
2019-02-14T03:25:50.568Z,17.12
2019-02-14T03:28:18.363Z,17.14
2019-02-14T03:30:46.113Z,17.25
2019-02-14T03:33:14.095Z,17.22
2019-02-14T03:35:41.844Z,17.11
2019-02-14T03:38:09.593Z,17.09
2019-02-14T03:40:37.373Z,17.06
2019-02-14T03:43:05.109Z,17.11
2019-02-14T03:45:32.849Z,17.19
2019-02-14T03:48:00.649Z,17.22
2019-02-14T03:50:28.392Z,17.19
2019-02-14T03:52:56.130Z,17.15
2019-02-14T03:55:23.984Z,17.05
2019-02-14T03:57:51.861Z,17.15
2019-02-14T04:00:19.644Z,17.19
2019-02-14T04:02:47.412Z,17.13
2019-02-14T04:05:15.513Z,17.16
2019-02-14T04:07:43.278Z,17.12
2019-02-14T04:10:11.805Z,17.18
2019-02-14T04:12:39.713Z,17.20
2019-02-14T04:15:08.366Z,17.27
2019-02-14T04:17:36.135Z,17.21
2019-02-14T04:20:04.026Z,17.15
2019-02-14T04:22:31.978Z,17.15
2019-02-14T04:24:59.726Z,17.19
2019-02-14T04:27:27.487Z,17.12
2019-02-14T04:29:55.322Z,17.15
2019-02-14T04:32:23.192Z,17.16
2019-02-14T04:34:51.034Z,17.18
2019-02-14T04:37:18.836Z,17.14
2019-02-14T04:39:46.583Z,17.11
2019-02-14T04:42:15.163Z,17.11
2019-02-14T04:44:43.047Z,17.13
2019-02-14T04:47:10.773Z,17.18
2019-02-14T04:49:38.539Z,17.13
2019-02-14T04:52:06.528Z,17.02
2019-02-14T04:54:34.375Z,17.03
2019-02-14T04:57:02.180Z,16.98
2019-02-14T04:59:30.344Z,16.94
2019-02-14T05:01:58.194Z,17.03
2019-02-14T05:04:25.948Z,17.08
2019-02-14T05:06:53.851Z,17.07
2019-02-14T05:09:21.858Z,17.05
2019-02-14T05:11:49.625Z,16.99
2019-02-14T05:14:17.437Z,16.99
2019-02-14T05:16:45.178Z,16.99
2019-02-14T05:19:12.952Z,17.03
2019-02-14T05:21:40.692Z,17.07
2019-02-14T05:24:08.481Z,17.07
2019-02-14T05:26:36.218Z,17.09
2019-02-14T05:29:04.009Z,17.08
2019-02-14T05:31:32.173Z,17.13
2019-02-14T05:34:00.071Z,17.13
2019-02-14T05:36:27.872Z,17.13
2019-02-14T05:38:55.622Z,17.05
2019-02-14T05:41:23.350Z,17.15
2019-02-14T05:43:51.232Z,17.10
2019-02-14T05:46:19.018Z,16.99
2019-02-14T05:48:46.792Z,17.01
2019-02-14T05:51:14.612Z,17.04
2019-02-14T05:53:42.365Z,17.04
2019-02-14T05:56:10.299Z,17.06
2019-02-14T05:58:38.136Z,17.12
2019-02-14T06:01:06.565Z,17.07
2019-02-14T06:03:34.473Z,17.06
2019-02-14T06:06:02.357Z,16.94
2019-02-14T06:08:30.206Z,17.09
2019-02-14T06:10:58.037Z,17.06
2019-02-14T06:13:25.882Z,17.03
2019-02-14T06:15:53.677Z,17.03
2019-02-14T06:18:21.833Z,16.96
2019-02-14T06:20:49.692Z,17.01
2019-02-14T06:23:17.479Z,17.02
2019-02-14T06:25:45.285Z,17.00
2019-02-14T06:28:13.067Z,17.03
2019-02-14T06:30:40.888Z,17.10
2019-02-14T06:33:08.832Z,17.07
2019-02-14T06:35:36.692Z,17.07
2019-02-14T06:38:04.452Z,17.16
2019-02-14T06:41:08.717Z,17.11
2019-02-14T06:43:36.483Z,17.00
2019-02-14T06:46:04.382Z,17.05
2019-02-14T06:48:32.317Z,17.13
2019-02-14T06:51:00.080Z,17.05
2019-02-14T06:53:27.823Z,17.15
2019-02-14T06:55:55.776Z,17.06
2019-02-14T06:58:23.602Z,16.99
2019-02-14T07:00:51.479Z,17.06
2019-02-14T07:03:19.261Z,17.06
2019-02-14T07:05:47.598Z,17.06
2019-02-14T07:08:16.626Z,17.02
2019-02-14T07:10:45.988Z,16.94
2019-02-14T07:13:15.823Z,17.03
2019-02-14T07:15:44.376Z,16.99
2019-02-14T07:18:28.483Z,16.92
2019-02-14T07:20:53.530Z,16.93
2019-02-14T07:23:22.446Z,17.14
2019-02-14T07:25:51.036Z,17.11
2019-02-14T07:28:19.197Z,17.16
2019-02-14T07:30:47.145Z,17.06
2019-02-14T07:33:15.061Z,17.07
2019-02-14T07:35:42.884Z,17.07
2019-02-14T07:38:10.840Z,17.10
2019-02-14T07:40:38.655Z,17.11
2019-02-14T07:43:06.660Z,17.16
2019-02-14T07:45:34.809Z,17.06
2019-02-14T07:48:02.796Z,17.11
2019-02-14T07:50:31.028Z,17.07
2019-02-14T07:52:59.081Z,17.13
2019-02-14T07:55:27.637Z,17.17
2019-02-14T07:57:55.752Z,17.18
2019-02-14T08:00:24.240Z,17.18
2019-02-14T08:02:52.289Z,17.19
2019-02-14T08:05:20.641Z,17.24
2019-02-14T08:07:48.565Z,17.17
2019-02-14T08:10:18.277Z,17.11
2019-02-14T08:12:47.420Z,17.16
2019-02-14T08:15:15.524Z,17.23
2019-02-14T08:17:43.888Z,17.17
2019-02-14T08:20:12.064Z,17.21
2019-02-14T08:22:40.063Z,17.18
2019-02-14T08:25:09.080Z,17.22
2019-02-14T08:27:36.992Z,17.14
2019-02-14T08:30:05.405Z,17.17
2019-02-14T08:32:33.160Z,17.19
2019-02-14T08:35:00.962Z,17.13
2019-02-14T08:37:28.915Z,17.16
2019-02-14T08:39:56.788Z,17.18
2019-02-14T08:42:24.635Z,17.11
2019-02-14T08:44:52.716Z,17.15
2019-02-14T08:47:20.886Z,17.14
2019-02-14T08:49:48.846Z,17.16
2019-02-14T08:52:17.510Z,17.14
2019-02-14T08:54:45.607Z,17.12
2019-02-14T08:57:13.873Z,17.15
2019-02-14T08:59:41.757Z,17.13
2019-02-14T09:02:09.836Z,17.10
2019-02-14T09:04:37.695Z,17.13
2019-02-14T09:07:06.019Z,17.13
2019-02-14T09:09:34.119Z,17.13
2019-02-14T09:12:02.107Z,17.13
2019-02-14T09:14:29.998Z,17.10
2019-02-14T09:16:58.491Z,17.19
2019-02-14T09:19:26.367Z,17.01
2019-02-14T09:21:54.235Z,17.20
2019-02-14T09:24:23.612Z,17.15
2019-02-14T09:26:51.460Z,17.15
2019-02-14T09:29:19.465Z,17.16
2019-02-14T09:31:52.933Z,17.17
2019-02-14T09:34:20.999Z,17.18
2019-02-14T09:36:48.787Z,17.15
2019-02-14T09:39:16.745Z,17.20
2019-02-14T09:41:44.633Z,17.19
2019-02-14T09:44:13.128Z,17.20
2019-02-14T09:46:41.196Z,17.19
2019-02-14T09:49:09.097Z,17.15
2019-02-14T09:51:36.943Z,17.20
2019-02-14T09:54:04.829Z,17.28
2019-02-14T09:56:32.857Z,17.25
2019-02-14T09:59:01.325Z,17.15
2019-02-14T10:01:29.242Z,17.15
2019-02-14T10:03:57.125Z,17.19
2019-02-14T10:06:24.971Z,17.20
2019-02-14T10:08:53.031Z,17.20
2019-02-14T10:11:20.902Z,17.26
2019-02-14T10:13:50.227Z,17.19
2019-02-14T10:16:18.135Z,17.26
2019-02-14T10:18:46.059Z,17.09
2019-02-14T10:21:13.843Z,17.27
2019-02-14T10:23:42.183Z,17.18
2019-02-14T10:26:10.613Z,17.29
2019-02-14T10:28:38.492Z,17.29
2019-02-14T10:31:06.389Z,17.33
2019-02-14T10:33:35.401Z,17.33
2019-02-14T10:36:04.524Z,17.35
2019-02-14T10:38:32.508Z,17.35
2019-02-14T10:41:00.524Z,17.33
2019-02-14T10:43:28.534Z,17.38
2019-02-14T10:45:56.799Z,17.44
2019-02-14T10:48:33.320Z,17.39
2019-02-14T10:51:01.188Z,17.45
2019-02-14T10:53:29.416Z,17.51
2019-02-14T10:55:57.277Z,17.51
2019-02-14T10:58:25.207Z,17.49
2019-02-14T11:00:53.015Z,17.53
2019-02-14T11:03:23.109Z,17.57
2019-02-14T11:05:51.038Z,17.55
2019-02-14T11:08:31.586Z,17.55
2019-02-14T11:10:55.794Z,17.59
2019-02-14T11:13:23.757Z,17.50
2019-02-14T11:15:52.327Z,17.68
2019-02-14T11:18:21.299Z,17.65
2019-02-14T11:20:49.146Z,17.63
2019-02-14T11:23:17.295Z,17.69
2019-02-14T11:25:45.290Z,17.72
2019-02-14T11:28:13.156Z,17.78
2019-02-14T11:30:40.982Z,17.80
2019-02-14T11:33:08.802Z,17.83
2019-02-14T11:35:36.731Z,17.80
2019-02-14T11:38:04.510Z,17.75
2019-02-14T11:40:32.446Z,17.77
2019-02-14T11:43:00.390Z,17.58
2019-02-14T11:45:28.452Z,17.90
2019-02-14T11:47:56.697Z,17.93
2019-02-14T11:50:24.809Z,17.86
2019-02-14T11:52:52.687Z,18.01
2019-02-14T11:55:21.885Z,18.01
2019-02-14T11:57:49.742Z,18.03
2019-02-14T12:00:22.014Z,18.00
2019-02-14T12:02:55.569Z,18.02
2019-02-14T12:05:19.457Z,18.01
2019-02-14T12:07:47.244Z,17.98
2019-02-14T12:10:15.035Z,18.05
2019-02-14T12:12:43.095Z,18.06
2019-02-14T12:15:11.181Z,18.08
2019-02-14T12:17:39.553Z,18.12
2019-02-14T12:20:12.408Z,18.15
2019-02-14T12:22:44.581Z,18.17
2019-02-14T12:25:08.539Z,18.16
2019-02-14T12:27:36.586Z,18.20
2019-02-14T12:30:05.730Z,18.26
2019-02-14T12:32:34.016Z,18.25
2019-02-14T12:35:02.777Z,18.27
2019-02-14T12:37:35.463Z,18.30
2019-02-14T12:40:04.422Z,18.30
2019-02-14T12:42:32.370Z,18.34
2019-02-14T12:45:00.309Z,18.35
2019-02-14T12:47:29.915Z,18.31
2019-02-14T12:50:00.331Z,18.37
2019-02-14T12:52:28.428Z,18.43
2019-02-14T12:54:57.017Z,18.47
2019-02-14T12:57:25.176Z,18.45
2019-02-14T12:59:53.363Z,18.44
2019-02-14T13:02:21.242Z,18.54
2019-02-14T13:04:49.023Z,18.50
2019-02-14T13:07:18.078Z,18.51
2019-02-14T13:09:59.890Z,18.58
2019-02-14T13:12:28.553Z,18.54
2019-02-14T13:14:57.761Z,18.57
2019-02-14T13:17:25.648Z,18.60
2019-02-14T13:19:53.524Z,18.64
2019-02-14T13:22:21.671Z,18.66
2019-02-14T13:24:49.534Z,18.68
2019-02-14T13:27:18.252Z,18.66
2019-02-14T13:29:46.279Z,18.56
2019-02-14T13:32:14.814Z,18.83
2019-02-14T13:34:42.963Z,18.77
2019-02-14T13:37:11.481Z,18.74
2019-02-14T13:39:40.425Z,18.85
2019-02-14T13:42:09.656Z,18.78
2019-02-14T13:44:38.336Z,18.89
2019-02-14T13:47:06.337Z,18.85
2019-02-14T13:49:34.781Z,18.83
2019-02-14T13:52:03.527Z,18.84
2019-02-14T13:54:33.393Z,18.83
2019-02-14T13:57:01.313Z,18.87
2019-02-14T13:59:32.020Z,18.98
2019-02-14T14:02:01.716Z,18.95
2019-02-14T14:04:30.956Z,18.93
2019-02-14T14:07:00.258Z,18.92
2019-02-14T14:09:28.377Z,18.89
2019-02-14T14:11:56.385Z,18.91
2019-02-14T14:14:25.135Z,18.92
2019-02-14T14:17:00.612Z,19.00
2019-02-14T14:19:30.589Z,18.95
2019-02-14T14:21:58.863Z,18.97
2019-02-14T14:24:27.418Z,19.03
2019-02-14T14:26:55.717Z,18.99
2019-02-14T14:29:23.559Z,18.99
2019-02-14T14:31:51.321Z,19.03
2019-02-14T14:34:20.217Z,19.01
2019-02-14T14:36:48.619Z,18.89
2019-02-14T14:39:16.688Z,19.02
2019-02-14T14:41:46.083Z,19.11
2019-02-14T14:44:33.177Z,19.08
2019-02-14T14:47:10.440Z,19.14
2019-02-14T14:49:38.966Z,19.22
2019-02-14T14:52:07.698Z,19.15
2019-02-14T14:54:36.105Z,19.14
2019-02-14T14:57:03.959Z,19.16
2019-02-14T14:59:32.021Z,19.17
2019-02-14T15:02:01.009Z,19.17
2019-02-14T15:04:28.822Z,19.18
2019-02-14T15:06:56.589Z,19.29
2019-02-14T15:09:25.077Z,19.27
2019-02-14T15:11:52.957Z,19.23
2019-02-14T15:14:20.739Z,19.25
2019-02-14T15:16:48.729Z,19.21
2019-02-14T15:19:23.997Z,19.25
2019-02-14T15:21:53.127Z,19.22
2019-02-14T15:24:20.969Z,19.24
2019-02-14T15:26:48.766Z,19.25
2019-02-14T15:29:16.569Z,19.20
2019-02-14T15:31:44.348Z,19.23
2019-02-14T15:34:12.679Z,19.22
2019-02-14T15:36:41.330Z,19.24
2019-02-14T15:39:09.675Z,19.21
2019-02-14T15:41:37.910Z,19.29
2019-02-14T15:44:05.808Z,19.25
2019-02-14T15:46:34.748Z,19.32
2019-02-14T15:49:02.706Z,19.35
2019-02-14T15:51:31.674Z,19.27
2019-02-14T15:53:59.616Z,19.38
2019-02-14T15:56:29.313Z,19.29
2019-02-14T15:59:03.318Z,19.56
2019-02-14T16:01:35.107Z,19.44
2019-02-14T16:04:04.938Z,19.40
2019-02-14T16:06:33.979Z,19.57
2019-02-14T16:09:01.839Z,19.58
2019-02-14T16:11:31.443Z,19.52
2019-02-14T16:13:59.598Z,19.45
2019-02-14T16:16:27.840Z,19.48
2019-02-14T16:18:58.693Z,19.36
2019-02-14T16:21:34.973Z,19.52
2019-02-14T16:24:05.751Z,19.51
2019-02-14T16:26:35.330Z,19.43
2019-02-14T16:29:04.454Z,19.46
2019-02-14T16:31:32.381Z,19.41
2019-02-14T16:34:01.762Z,19.45
2019-02-14T16:36:32.450Z,19.41
2019-02-14T16:39:01.430Z,19.36
2019-02-14T16:41:30.048Z,19.30
2019-02-14T16:43:58.443Z,19.29
2019-02-14T16:46:27.173Z,19.27
2019-02-14T16:48:55.481Z,19.28
2019-02-14T16:51:24.095Z,19.25
2019-02-14T16:53:56.876Z,19.28
2019-02-14T16:56:25.111Z,19.28
2019-02-14T16:58:52.997Z,19.27
2019-02-14T17:01:28.730Z,19.24
2019-02-14T17:03:56.590Z,19.19
2019-02-14T17:06:27.778Z,19.33
2019-02-14T17:08:57.140Z,19.24
2019-02-14T17:11:25.105Z,19.39
2019-02-14T17:13:53.524Z,19.28
2019-02-14T17:16:23.516Z,19.17
2019-02-14T17:21:51.911Z,19.27
2019-02-14T17:24:19.840Z,19.24
2019-02-14T17:26:47.985Z,19.14
2019-02-14T17:29:16.135Z,19.20
2019-02-14T17:31:49.485Z,19.18
2019-02-14T17:34:20.426Z,19.16
2019-02-14T17:36:48.321Z,19.20
2019-02-14T17:39:16.326Z,19.18
2019-02-14T17:41:44.685Z,19.41
2019-02-14T17:44:12.963Z,19.27
2019-02-14T17:46:41.011Z,19.23
2019-02-14T17:49:10.029Z,19.26
2019-02-14T17:51:38.377Z,19.15
2019-02-14T17:54:07.117Z,19.16
2019-02-14T17:56:35.925Z,19.24
2019-02-14T17:59:05.099Z,19.19
2019-02-14T18:01:33.096Z,19.16
2019-02-14T18:04:02.803Z,19.11
2019-02-14T18:06:30.834Z,19.08
2019-02-14T18:11:43.543Z,19.08
2019-02-14T18:14:18.069Z,19.05
2019-02-14T18:16:46.449Z,19.05
2019-02-14T18:22:49.153Z,19.05
2019-02-14T18:25:17.192Z,19.19
2019-02-14T18:27:45.193Z,19.17
2019-02-14T18:30:13.598Z,19.18
2019-02-14T18:32:41.463Z,19.10
2019-02-14T18:35:09.684Z,19.09
2019-02-14T18:37:37.954Z,19.12
2019-02-14T18:40:06.021Z,19.16
2019-02-14T18:42:34.003Z,19.16
2019-02-14T18:45:01.975Z,19.05
2019-02-14T18:47:39.291Z,18.99
2019-02-14T18:50:00.531Z,19.20
2019-02-14T18:52:28.994Z,19.24
2019-02-14T18:54:56.959Z,19.20
2019-02-14T18:57:25.431Z,19.10
2019-02-14T18:59:53.704Z,19.06
2019-02-14T19:02:22.777Z,19.25
2019-02-14T19:04:51.064Z,19.25
2019-02-14T19:07:19.377Z,19.20
2019-02-14T19:09:47.342Z,18.95
2019-02-14T19:12:15.522Z,18.86
2019-02-14T19:14:43.700Z,19.08
2019-02-14T19:17:12.359Z,18.87
2019-02-14T19:19:40.133Z,18.94
2019-02-14T19:22:08.347Z,18.84
2019-02-14T19:24:36.168Z,18.91
2019-02-14T19:27:04.124Z,18.87
2019-02-14T19:29:32.249Z,18.81
2019-02-14T19:32:00.079Z,18.95
2019-02-14T19:34:27.908Z,18.66
2019-02-14T19:36:55.802Z,18.80
2019-02-14T19:39:23.814Z,18.88
2019-02-14T19:41:51.778Z,18.89
2019-02-14T19:44:19.622Z,18.96
2019-02-14T19:46:49.814Z,18.86
2019-02-14T19:49:16.996Z,18.91
2019-02-14T19:51:44.898Z,18.89
2019-02-14T19:54:12.707Z,18.82
2019-02-14T19:56:43.675Z,18.78
2019-02-14T19:59:11.587Z,18.83
2019-02-14T20:01:39.447Z,18.86
2019-02-14T20:04:07.637Z,18.92
2019-02-14T20:06:35.472Z,18.83
2019-02-14T20:09:04.653Z,18.83
2019-02-14T20:11:36.827Z,18.71
2019-02-14T20:14:02.128Z,18.77
2019-02-14T20:16:30.112Z,18.70
2019-02-14T20:18:58.011Z,18.75
2019-02-14T20:21:32.262Z,18.55
2019-02-14T20:23:55.643Z,18.77
2019-02-14T20:26:23.591Z,18.73
2019-02-14T20:28:53.704Z,18.66
2019-02-14T20:31:24.087Z,18.69
2019-02-14T20:33:52.362Z,18.68
2019-02-14T20:36:20.424Z,18.72
2019-02-14T20:38:48.297Z,18.68
2019-02-14T20:41:16.508Z,18.76
2019-02-14T20:43:44.325Z,18.69
2019-02-14T20:46:12.451Z,18.59
2019-02-14T20:48:40.677Z,18.58
2019-02-14T20:51:08.768Z,18.49
2019-02-14T20:53:37.737Z,18.53
2019-02-14T20:56:05.691Z,18.53
2019-02-14T20:58:33.578Z,18.34
2019-02-14T21:01:01.782Z,18.36
2019-02-14T21:03:29.749Z,18.11
2019-02-14T21:09:12.983Z,18.21
2019-02-14T21:11:41.667Z,18.02
2019-02-14T21:14:09.806Z,18.01
2019-02-14T21:16:38.550Z,18.01
2019-02-14T21:19:06.518Z,18.08
2019-02-14T21:21:34.818Z,18.12
2019-02-14T21:24:03.286Z,18.14
2019-02-14T21:26:32.921Z,18.04
2019-02-14T21:29:01.080Z,18.05
2019-02-14T21:31:29.551Z,18.10
2019-02-14T21:33:58.702Z,18.10
2019-02-14T21:36:26.705Z,18.07
2019-02-14T21:38:55.570Z,18.00
2019-02-14T21:41:26.223Z,17.94
2019-02-14T21:43:54.418Z,18.03
2019-02-14T21:46:22.713Z,18.00
2019-02-14T21:48:50.741Z,17.94
2019-02-14T21:51:18.838Z,17.97
2019-02-14T21:53:47.641Z,17.99
2019-02-14T21:56:17.553Z,17.99
2019-02-14T21:58:50.734Z,18.01
2019-02-14T22:01:22.814Z,17.91
2019-02-14T22:03:50.833Z,17.98
2019-02-14T22:06:19.403Z,18.07
2019-02-14T22:08:47.365Z,18.00
2019-02-14T22:11:15.315Z,17.99
2019-02-14T22:13:43.344Z,17.97
2019-02-14T22:16:14.009Z,17.93
2019-02-14T22:18:42.040Z,17.99
2019-02-14T22:21:36.914Z,17.96
2019-02-14T22:24:05.255Z,17.93
2019-02-14T22:26:33.772Z,17.77
2019-02-14T22:29:03.208Z,17.89
2019-02-14T22:31:31.303Z,17.84
2019-02-14T22:33:59.189Z,17.90
2019-02-14T22:36:27.308Z,17.90
2019-02-14T22:38:55.448Z,17.89
2019-02-14T22:41:24.047Z,17.71
2019-02-14T22:43:52.084Z,17.77
2019-02-14T22:46:20.129Z,17.71
2019-02-14T22:48:49.462Z,17.71
2019-02-14T22:55:29.200Z,17.64
2019-02-14T22:57:57.166Z,17.56
2019-02-14T23:00:29.491Z,17.47
2019-02-14T23:03:00.107Z,17.54
2019-02-14T23:05:27.952Z,17.45
2019-02-14T23:08:07.786Z,17.51
2019-02-14T23:10:37.266Z,17.50
2019-02-14T23:13:05.977Z,17.39
2019-02-14T23:15:39.295Z,17.55
2019-02-14T23:18:07.762Z,17.36
2019-02-14T23:20:35.702Z,17.18
2019-02-14T23:23:03.999Z,17.36
2019-02-14T23:25:31.842Z,17.36
2019-02-14T23:28:01.851Z,17.19
2019-02-14T23:30:29.723Z,17.15
2019-02-14T23:33:01.130Z,17.40
2019-02-14T23:35:29.106Z,17.32
2019-02-14T23:38:17.563Z,17.18
2019-02-14T23:40:45.792Z,17.21
2019-02-14T23:43:13.662Z,17.12
2019-02-14T23:45:42.859Z,17.15
2019-02-14T23:48:10.654Z,17.02
2019-02-14T23:50:38.419Z,17.00
2019-02-14T23:53:06.158Z,16.94
2019-02-14T23:55:34.027Z,16.87
2019-02-14T23:58:01.759Z,16.78
